• Join FlightAware (Why Join?)
  • Login
  • US Flag 
08:33PM EDT


 

Airport Tracker/Info


-or-


 

Live Flight TrackerFlight Track Log ✈ VH-SKC ✈ 09-Nov-2013 ✈ YLBD - YBRM / BME

Flight Track Log - Related Links

Times and Time Zones

All times are in EST time to prevent confusion due to time zone crossing. See the VH-SKC flight status page for this flight to view local times or setup timezone preferences in your user account.

Time Position Orientation Groundspeed Altitude Reporting Facility
EST Latitude Longitude Course Direction KTS MPH feet Rate Location/Type
02:42AM -16.6061 122.8587 360° North 300  Level Aus ATC (Calculated)
02:43AM -16.6061 122.8587 204° Southwest 300  Level Aus ATC (Calculated)
02:44AM -16.6899 122.8200 24° Northeast 300  Level Aus ATC (Calculated)
02:45AM -16.6624 122.8328 204° Southwest  Level FlightAware Approximate
02:45AM -16.6899 122.8200 204° Southwest 300  Level Aus ATC (Calculated)
02:46AM -16.7306 122.8013 204° Southwest  Level FlightAware Approximate
02:46AM -16.6899 122.8200 360° North 300  Level Aus ATC (Calculated)
02:47AM -16.6899 122.8200 360° North 300  Level Aus ATC (Calculated)
02:47AM -16.6899 122.8200 204° Southwest 300  Level Aus ATC (Calculated)
02:49AM -16.7387 122.7975 204° Southwest  Level FlightAware Approximate
02:50AM -16.7735 122.7814 204° Southwest  Level FlightAware Approximate
02:50AM -16.8471 122.7474 204° Southwest 300  Level Aus ATC (Calculated)
02:52AM -16.8970 122.7243 204° Southwest  Level FlightAware Approximate
02:52AM -16.9158 122.7156 204° Southwest 300  Level Aus ATC (Calculated)
02:53AM -16.9318 122.7081 204° Southwest  Level FlightAware Approximate
02:54AM -16.9570 122.6965 204° Southwest  Level FlightAware Approximate
02:55AM -16.9918 122.6803 204° Southwest  Level FlightAware Approximate
02:56AM -17.0266 122.6642 204° Southwest  Level FlightAware Approximate
02:57AM -17.0614 122.6480 204° Southwest  Level FlightAware Approximate
02:58AM -17.0963 122.6319 204° Southwest  Level FlightAware Approximate
02:59AM -17.1311 122.6157 204° Southwest  Level FlightAware Approximate
03:00AM -17.1659 122.5995 204° Southwest  Level FlightAware Approximate
03:00AM -17.2380 122.5660 24° Northeast 300  Level Aus ATC (Calculated)
03:01AM -17.2007 122.5834 204° Southwest  Level FlightAware Approximate
03:02AM -17.2896 122.5420 204° Southwest  Level FlightAware Approximate
03:03AM -17.3244 122.5258 204° Southwest  Level FlightAware Approximate
03:04AM -17.3592 122.5097 204° Southwest  Level FlightAware Approximate
03:05AM -17.3940 122.4934 204° Southwest  Level FlightAware Approximate
03:06AM -17.4288 122.4772 204° Southwest  Level FlightAware Approximate
03:06AM -17.5037 122.4423 204° Southwest 300  Level Aus ATC (Calculated)
03:08AM -17.5599 122.4161 204° Southwest  Level FlightAware Approximate
03:09AM -17.5947 122.3998 204° Southwest  Level FlightAware Approximate
03:10AM -17.6295 122.3836 204° Southwest  Level FlightAware Approximate
03:10AM -17.6697 122.3648 360° North 300  Level Aus ATC (Calculated)
03:10AM -17.6697 122.3648 204° Southwest 300  Level Aus ATC (Calculated)
03:12AM -17.7369 122.3334 204° Southwest  Level FlightAware Approximate
03:13AM -17.7717 122.3171 204° Southwest  Level FlightAware Approximate
03:14AM -17.8065 122.3008 204° Southwest  Level FlightAware Approximate
03:15AM -17.8413 122.2845 204° Southwest  Level FlightAware Approximate
03:16AM -17.8761 122.2682 204° Southwest  Level FlightAware Approximate
03:17AM -17.9109 122.2519 204° Southwest  Level FlightAware Approximate
03:18AM -17.9457 122.2356 204° Southwest  Level FlightAware Approximate
03:19AM -17.9447 122.2317 204° Southwest  Level Estimated
03:20AM -17.9447 122.2317 115° Southeast  Level Estimated
03:21AM -17.9447 122.2317 115° Southeast  Level Estimated
03:22AM -17.9463 122.2353 204° Southwest  Level FlightAware Approximate
03:23AM -17.9447 122.2317 204° Southwest  Level Estimated
03:24AM -17.9463 122.2353 204° Southwest  Level FlightAware Approximate
03:25AM -17.9447 122.2317 204° Southwest  Level Estimated
03:26AM -17.9463 122.2353 204° Southwest  Level FlightAware Approximate
03:27AM -17.9447 122.2317 204° Southwest  Level Estimated
03:28AM -17.9463 122.2353 204° Southwest  Level FlightAware Approximate
03:29AM -17.9447 122.2317 204° Southwest  Level Estimated
03:30AM -17.9463 122.2353 204° Southwest  Level FlightAware Approximate
03:31AM -17.9447 122.2317 204° Southwest  Level Estimated
03:32AM -17.9463 122.2353 204° Southwest  Level FlightAware Approximate
03:33AM -17.9447 122.2317 204° Southwest  Level Estimated
03:34AM -17.9463 122.2353 204° Southwest  Level FlightAware Approximate
03:35AM -17.9447 122.2317 204° Southwest  Level Estimated
03:36AM -17.9463 122.2353 204° Southwest  Level FlightAware Approximate
03:37AM -17.9447 122.2317 204° Southwest  Level Estimated
03:38AM -17.9463 122.2353 204° Southwest  Level FlightAware Approximate